sensor_id;sensor_type;location;lat;lon;timestamp;P1;durP1;ratioP1;P2;durP2;ratioP2
61739;SDS011;47645;45.288;12.038;2023-02-19T00:00:07;61.7;;;32.9;;
61739;SDS011;47645;45.288;12.038;2023-02-19T00:10:07;66.3;;;33.8;;
61739;SDS011;47645;45.288;12.038;2023-02-19T00:20:07;47.9;;;25.6;;
61739;SDS011;47645;45.288;12.038;2023-02-19T00:30:08;46.0;;;25.0;;
61739;SDS011;47645;45.288;12.038;2023-02-19T00:40:08;48.3;;;26.1;;
61739;SDS011;47645;45.288;12.038;2023-02-19T00:50:08;55.5;;;29.6;;
61739;SDS011;47645;45.288;12.038;2023-02-19T01:00:09;56.4;;;28.9;;
61739;SDS011;47645;45.288;12.038;2023-02-19T01:10:09;56.1;;;29.1;;
61739;SDS011;47645;45.288;12.038;2023-02-19T01:20:10;53.2;;;27.9;;
61739;SDS011;47645;45.288;12.038;2023-02-19T01:30:10;62.3;;;30.4;;
61739;SDS011;47645;45.288;12.038;2023-02-19T01:40:11;58.0;;;29.1;;
61739;SDS011;47645;45.288;12.038;2023-02-19T01:50:11;67.3;;;34.3;;
61739;SDS011;47645;45.288;12.038;2023-02-19T02:00:13;99.6;;;42.3;;
61739;SDS011;47645;45.288;12.038;2023-02-19T02:10:19;96.3;;;42.4;;
61739;SDS011;47645;45.288;12.038;2023-02-19T02:20:20;105.7;;;44.3;;
61739;SDS011;47645;45.288;12.038;2023-02-19T02:30:16;90.6;;;40.0;;
61739;SDS011;47645;45.288;12.038;2023-02-19T02:40:13;112.5;;;45.8;;
61739;SDS011;47645;45.288;12.038;2023-02-19T02:50:14;112.0;;;45.1;;
61739;SDS011;47645;45.288;12.038;2023-02-19T03:00:14;98.8;;;41.1;;
61739;SDS011;47645;45.288;12.038;2023-02-19T03:10:15;87.7;;;36.3;;
61739;SDS011;47645;45.288;12.038;2023-02-19T03:20:15;99.6;;;41.9;;
61739;SDS011;47645;45.288;12.038;2023-02-19T03:30:17;75.0;;;34.0;;
61739;SDS011;47645;45.288;12.038;2023-02-19T03:40:16;135.6;;;49.6;;
61739;SDS011;47645;45.288;12.038;2023-02-19T03:50:17;127.0;;;47.0;;
61739;SDS011;47645;45.288;12.038;2023-02-19T04:00:18;102.4;;;43.8;;
61739;SDS011;47645;45.288;12.038;2023-02-19T04:10:17;91.2;;;37.2;;
61739;SDS011;47645;45.288;12.038;2023-02-19T04:20:18;123.4;;;46.1;;
61739;SDS011;47645;45.288;12.038;2023-02-19T04:30:19;133.3;;;47.8;;
61739;SDS011;47645;45.288;12.038;2023-02-19T04:40:19;146.9;;;49.5;;
61739;SDS011;47645;45.288;12.038;2023-02-19T04:50:19;142.2;;;48.5;;
61739;SDS011;47645;45.288;12.038;2023-02-19T05:00:20;131.9;;;43.4;;
61739;SDS011;47645;45.288;12.038;2023-02-19T05:10:20;155.9;;;48.0;;
61739;SDS011;47645;45.288;12.038;2023-02-19T05:20:22;170.2;;;49.6;;
61739;SDS011;47645;45.288;12.038;2023-02-19T05:30:21;175.4;;;51.1;;
61739;SDS011;47645;45.288;12.038;2023-02-19T05:40:22;173.6;;;54.0;;
61739;SDS011;47645;45.288;12.038;2023-02-19T05:50:23;152.4;;;47.1;;
61739;SDS011;47645;45.288;12.038;2023-02-19T06:00:26;163.9;;;50.6;;
61739;SDS011;47645;45.288;12.038;2023-02-19T06:10:23;186.3;;;52.8;;
61739;SDS011;47645;45.288;12.038;2023-02-19T06:20:24;167.2;;;49.1;;
61739;SDS011;47645;45.288;12.038;2023-02-19T06:30:25;218.3;;;56.3;;
61739;SDS011;47645;45.288;12.038;2023-02-19T06:40:25;161.4;;;47.3;;
61739;SDS011;47645;45.288;12.038;2023-02-19T06:50:26;183.1;;;50.8;;
61739;SDS011;47645;45.288;12.038;2023-02-19T07:00:26;195.2;;;53.7;;
61739;SDS011;47645;45.288;12.038;2023-02-19T07:10:26;186.3;;;51.0;;
61739;SDS011;47645;45.288;12.038;2023-02-19T07:20:27;221.0;;;56.5;;
61739;SDS011;47645;45.288;12.038;2023-02-19T07:30:27;214.4;;;55.9;;
61739;SDS011;47645;45.288;12.038;2023-02-19T07:40:28;197.1;;;53.3;;
61739;SDS011;47645;45.288;12.038;2023-02-19T07:50:28;214.9;;;51.6;;
61739;SDS011;47645;45.288;12.038;2023-02-19T08:00:28;191.4;;;48.1;;
61739;SDS011;47645;45.288;12.038;2023-02-19T08:20:29;149.8;;;42.5;;
61739;SDS011;47645;45.288;12.038;2023-02-19T08:30:30;139.3;;;40.9;;
61739;SDS011;47645;45.288;12.038;2023-02-19T08:40:30;158.2;;;44.1;;
61739;SDS011;47645;45.288;12.038;2023-02-19T08:50:31;136.4;;;42.5;;
61739;SDS011;47645;45.288;12.038;2023-02-19T09:00:31;137.7;;;42.2;;
61739;SDS011;47645;45.288;12.038;2023-02-19T09:10:32;154.1;;;46.2;;
61739;SDS011;47645;45.288;12.038;2023-02-19T09:20:32;135.2;;;42.7;;
61739;SDS011;47645;45.288;12.038;2023-02-19T09:30:33;138.6;;;42.9;;
61739;SDS011;47645;45.288;12.038;2023-02-19T09:40:34;137.4;;;43.4;;
61739;SDS011;47645;45.288;12.038;2023-02-19T09:50:35;118.5;;;38.4;;
61739;SDS011;47645;45.288;12.038;2023-02-19T10:00:34;121.5;;;41.0;;
61739;SDS011;47645;45.288;12.038;2023-02-19T10:10:35;122.7;;;41.0;;
61739;SDS011;47645;45.288;12.038;2023-02-19T10:20:35;123.2;;;42.8;;
61739;SDS011;47645;45.288;12.038;2023-02-19T10:30:36;115.3;;;40.0;;
61739;SDS011;47645;45.288;12.038;2023-02-19T10:40:36;125.5;;;44.2;;
61739;SDS011;47645;45.288;12.038;2023-02-19T10:50:38;117.9;;;43.1;;
61739;SDS011;47645;45.288;12.038;2023-02-19T11:00:37;109.5;;;39.4;;
61739;SDS011;47645;45.288;12.038;2023-02-19T11:10:38;122.5;;;45.0;;
61739;SDS011;47645;45.288;12.038;2023-02-19T11:20:39;120.4;;;42.6;;
61739;SDS011;47645;45.288;12.038;2023-02-19T11:30:39;113.5;;;43.8;;
61739;SDS011;47645;45.288;12.038;2023-02-19T11:40:42;102.5;;;42.7;;
61739;SDS011;47645;45.288;12.038;2023-02-19T11:50:47;102.4;;;40.4;;
61739;SDS011;47645;45.288;12.038;2023-02-19T12:00:42;105.5;;;43.5;;
61739;SDS011;47645;45.288;12.038;2023-02-19T12:10:45;111.3;;;43.4;;
61739;SDS011;47645;45.288;12.038;2023-02-19T12:20:43;94.8;;;42.1;;
61739;SDS011;47645;45.288;12.038;2023-02-19T12:30:47;76.2;;;35.5;;
61739;SDS011;47645;45.288;12.038;2023-02-19T12:40:46;90.7;;;40.0;;
61739;SDS011;47645;45.288;12.038;2023-02-19T12:50:45;80.5;;;38.1;;
61739;SDS011;47645;45.288;12.038;2023-02-19T13:00:46;76.3;;;37.3;;
61739;SDS011;47645;45.288;12.038;2023-02-19T13:10:47;74.2;;;38.7;;
61739;SDS011;47645;45.288;12.038;2023-02-19T13:20:47;77.6;;;40.0;;
61739;SDS011;47645;45.288;12.038;2023-02-19T13:30:54;73.4;;;38.1;;
61739;SDS011;47645;45.288;12.038;2023-02-19T13:40:53;138.8;;;50.4;;
61739;SDS011;47645;45.288;12.038;2023-02-19T13:50:49;136.3;;;49.0;;
61739;SDS011;47645;45.288;12.038;2023-02-19T14:00:50;150.1;;;51.5;;
61739;SDS011;47645;45.288;12.038;2023-02-19T14:10:51;151.5;;;53.5;;
61739;SDS011;47645;45.288;12.038;2023-02-19T14:20:52;149.9;;;54.9;;
61739;SDS011;47645;45.288;12.038;2023-02-19T14:30:52;149.1;;;54.0;;
61739;SDS011;47645;45.288;12.038;2023-02-19T14:40:52;134.3;;;50.8;;
61739;SDS011;47645;45.288;12.038;2023-02-19T14:50:54;133.9;;;51.9;;
61739;SDS011;47645;45.288;12.038;2023-02-19T15:00:53;137.4;;;49.2;;
61739;SDS011;47645;45.288;12.038;2023-02-19T15:10:55;132.7;;;49.5;;
61739;SDS011;47645;45.288;12.038;2023-02-19T15:20:58;127.0;;;49.5;;
61739;SDS011;47645;45.288;12.038;2023-02-19T15:31:05;127.3;;;51.0;;
61739;SDS011;47645;45.288;12.038;2023-02-19T15:40:57;133.5;;;49.7;;
61739;SDS011;47645;45.288;12.038;2023-02-19T15:50:58;126.8;;;49.0;;
61739;SDS011;47645;45.288;12.038;2023-02-19T16:00:57;143.7;;;53.6;;
61739;SDS011;47645;45.288;12.038;2023-02-19T16:10:58;127.8;;;50.6;;
61739;SDS011;47645;45.288;12.038;2023-02-19T16:20:58;141.6;;;52.8;;
61739;SDS011;47645;45.288;12.038;2023-02-19T16:30:59;131.6;;;47.9;;
61739;SDS011;47645;45.288;12.038;2023-02-19T16:41:04;137.4;;;50.6;;
61739;SDS011;47645;45.288;12.038;2023-02-19T16:51:03;103.2;;;39.2;;
61739;SDS011;47645;45.288;12.038;2023-02-19T17:01:01;107.3;;;40.4;;
61739;SDS011;47645;45.288;12.038;2023-02-19T17:11:02;91.3;;;35.5;;
61739;SDS011;47645;45.288;12.038;2023-02-19T17:21:03;158.3;;;61.2;;
61739;SDS011;47645;45.288;12.038;2023-02-19T17:31:02;136.4;;;49.9;;
61739;SDS011;47645;45.288;12.038;2023-02-19T17:41:03;139.8;;;52.5;;
61739;SDS011;47645;45.288;12.038;2023-02-19T17:51:03;120.9;;;47.6;;
61739;SDS011;47645;45.288;12.038;2023-02-19T18:01:04;121.0;;;46.4;;
61739;SDS011;47645;45.288;12.038;2023-02-19T18:11:05;121.7;;;46.6;;
61739;SDS011;47645;45.288;12.038;2023-02-19T18:21:06;101.9;;;42.0;;
61739;SDS011;47645;45.288;12.038;2023-02-19T18:31:06;115.4;;;44.2;;
61739;SDS011;47645;45.288;12.038;2023-02-19T18:41:09;120.0;;;46.5;;
61739;SDS011;47645;45.288;12.038;2023-02-19T18:51:08;132.6;;;48.1;;
61739;SDS011;47645;45.288;12.038;2023-02-19T19:01:07;118.1;;;45.1;;
61739;SDS011;47645;45.288;12.038;2023-02-19T19:11:08;119.9;;;45.5;;
61739;SDS011;47645;45.288;12.038;2023-02-19T19:21:09;116.2;;;45.2;;
61739;SDS011;47645;45.288;12.038;2023-02-19T19:31:10;132.0;;;48.0;;
61739;SDS011;47645;45.288;12.038;2023-02-19T19:41:12;120.6;;;45.0;;
61739;SDS011;47645;45.288;12.038;2023-02-19T19:51:11;117.4;;;45.2;;
61739;SDS011;47645;45.288;12.038;2023-02-19T20:01:10;106.3;;;41.8;;
61739;SDS011;47645;45.288;12.038;2023-02-19T20:11:12;101.4;;;41.5;;
61739;SDS011;47645;45.288;12.038;2023-02-19T20:21:11;100.0;;;40.0;;
61739;SDS011;47645;45.288;12.038;2023-02-19T20:31:12;104.6;;;40.2;;
61739;SDS011;47645;45.288;12.038;2023-02-19T20:41:13;87.4;;;34.1;;
61739;SDS011;47645;45.288;12.038;2023-02-19T20:51:13;111.8;;;40.9;;
61739;SDS011;47645;45.288;12.038;2023-02-19T21:01:13;82.3;;;34.3;;
61739;SDS011;47645;45.288;12.038;2023-02-19T21:11:13;101.5;;;37.1;;
61739;SDS011;47645;45.288;12.038;2023-02-19T21:21:16;112.7;;;39.8;;
61739;SDS011;47645;45.288;12.038;2023-02-19T21:31:14;102.9;;;36.2;;
61739;SDS011;47645;45.288;12.038;2023-02-19T21:41:15;118.3;;;43.2;;
61739;SDS011;47645;45.288;12.038;2023-02-19T21:51:16;90.1;;;32.8;;
61739;SDS011;47645;45.288;12.038;2023-02-19T22:01:18;98.1;;;35.9;;
61739;SDS011;47645;45.288;12.038;2023-02-19T22:11:17;128.8;;;45.6;;
61739;SDS011;47645;45.288;12.038;2023-02-19T22:21:17;147.5;;;51.8;;
61739;SDS011;47645;45.288;12.038;2023-02-19T22:31:18;148.3;;;50.4;;
61739;SDS011;47645;45.288;12.038;2023-02-19T22:41:18;152.1;;;51.2;;
61739;SDS011;47645;45.288;12.038;2023-02-19T22:51:21;143.2;;;50.8;;
61739;SDS011;47645;45.288;12.038;2023-02-19T23:01:20;144.6;;;51.6;;
61739;SDS011;47645;45.288;12.038;2023-02-19T23:11:21;159.7;;;53.3;;
61739;SDS011;47645;45.288;12.038;2023-02-19T23:21:21;116.2;;;44.1;;
61739;SDS011;47645;45.288;12.038;2023-02-19T23:31:20;145.9;;;52.7;;
61739;SDS011;47645;45.288;12.038;2023-02-19T23:41:29;156.1;;;54.2;;
61739;SDS011;47645;45.288;12.038;2023-02-19T23:51:24;162.5;;;58.0;;
